createdAt,value
2018-02-24T00:00:15.298Z,-2.18
2018-02-24T00:01:15.267Z,-2.14
2018-02-24T00:02:15.501Z,-2.18
2018-02-24T00:03:14.952Z,-2.18
2018-02-24T00:04:15.457Z,-2.26
2018-02-24T00:05:15.199Z,-2.18
2018-02-24T00:06:15.400Z,-2.17
2018-02-24T00:07:15.115Z,-2.18
2018-02-24T00:08:15.346Z,-2.16
2018-02-24T00:09:14.790Z,-2.14
2018-02-24T00:10:14.782Z,-2.16
2018-02-24T00:11:15.280Z,-2.11
2018-02-24T00:12:15.240Z,-2.16
2018-02-24T00:13:14.954Z,-2.16
2018-02-24T00:14:14.938Z,-2.18
2018-02-24T00:15:14.906Z,-2.26
2018-02-24T00:16:14.906Z,-2.23
2018-02-24T00:17:14.844Z,-2.11
2018-02-24T00:18:14.819Z,-2.24
2018-02-24T00:19:14.799Z,-2.11
2018-02-24T00:20:14.506Z,-2.26
2018-02-24T00:21:14.738Z,-2.26
2018-02-24T00:22:14.447Z,-2.26
2018-02-24T00:23:14.691Z,-2.18
2018-02-24T00:24:14.660Z,-2.26
2018-02-24T00:25:14.898Z,-2.21
2018-02-24T00:26:14.608Z,-2.23
2018-02-24T00:27:14.578Z,-2.21
2018-02-24T00:28:14.837Z,-2.21
2018-02-24T00:29:14.847Z,-2.23
2018-02-24T00:30:14.512Z,-2.24
2018-02-24T00:31:14.222Z,-2.18
2018-02-24T00:32:14.498Z,-2.17
2018-02-24T00:33:14.687Z,-2.2
2018-02-24T00:34:14.392Z,-2.29
2018-02-24T00:35:14.368Z,-2.32
2018-02-24T00:36:14.080Z,-2.18
2018-02-24T00:37:14.053Z,-2.29
2018-02-24T00:38:14.026Z,-2.32
2018-02-24T00:39:14.262Z,-2.26
2018-02-24T00:40:14.499Z,-2.35
2018-02-24T00:41:13.947Z,-2.35
2018-02-24T00:42:14.547Z,-2.36
2018-02-24T00:43:14.155Z,-2.32
2018-02-24T00:44:14.399Z,-2.36
2018-02-24T00:45:14.106Z,-2.35
2018-02-24T00:46:13.808Z,-2.32
2018-02-24T00:47:14.327Z,-2.38
2018-02-24T00:48:14.025Z,-2.36
2018-02-24T00:49:14.265Z,-2.38
2018-02-24T00:50:14.033Z,-2.42
2018-02-24T00:51:13.713Z,-2.4
2018-02-24T00:52:14.190Z,-2.35
2018-02-24T00:53:13.915Z,-2.4
2018-02-24T00:54:13.630Z,-2.47
2018-02-24T00:55:14.111Z,-2.35
2018-02-24T00:56:14.094Z,-2.42
2018-02-24T00:57:14.056Z,-2.36
2018-02-24T00:58:14.023Z,-2.33
2018-02-24T00:59:13.467Z,-2.42
2018-02-24T01:00:13.704Z,-2.43
2018-02-24T01:01:13.685Z,-2.42
2018-02-24T01:02:13.924Z,-2.39
2018-02-24T01:03:13.363Z,-2.42
2018-02-24T01:04:13.598Z,-2.53
2018-02-24T01:05:13.861Z,-2.4
2018-02-24T01:06:13.817Z,-2.45
2018-02-24T01:07:13.527Z,-2.51
2018-02-24T01:08:13.229Z,-2.51
2018-02-24T01:09:13.466Z,-2.54
2018-02-24T01:10:13.174Z,-2.43
2018-02-24T01:11:13.146Z,-2.47
2018-02-24T01:12:13.127Z,-2.54
2018-02-24T01:13:13.097Z,-2.45
2018-02-24T01:14:13.329Z,-2.48
2018-02-24T01:15:13.312Z,-2.51
2018-02-24T01:16:13.540Z,-2.5
2018-02-24T01:17:12.989Z,-2.51
2018-02-24T01:18:12.958Z,-2.45
2018-02-24T01:19:13.465Z,-2.5
2018-02-24T01:20:13.495Z,-2.57
2018-02-24T01:21:13.208Z,-2.45
2018-02-24T01:22:13.117Z,-2.4
2018-02-24T01:23:13.092Z,-2.47
2018-02-24T01:24:13.329Z,-2.4
2018-02-24T01:25:13.046Z,-2.45
2018-02-24T01:26:13.012Z,-2.45
2018-02-24T01:27:12.722Z,-2.42
2018-02-24T01:28:12.956Z,-2.5
2018-02-24T01:29:12.932Z,-2.43
2018-02-24T01:30:12.642Z,-2.5
2018-02-24T01:31:13.149Z,-2.43
2018-02-24T01:32:12.856Z,-2.48
2018-02-24T01:33:13.187Z,-2.48
2018-02-24T01:34:13.067Z,-2.48
2018-02-24T01:35:12.525Z,-2.54
2018-02-24T01:36:12.754Z,-2.56
2018-02-24T01:37:12.717Z,-2.64
2018-02-24T01:38:12.689Z,-2.63
2018-02-24T01:39:12.668Z,-2.58
2018-02-24T01:40:12.371Z,-2.54
2018-02-24T01:41:12.618Z,-2.6
2018-02-24T01:42:12.593Z,-2.61
2018-02-24T01:43:12.557Z,-2.64
2018-02-24T01:44:12.802Z,-2.54
2018-02-24T01:45:12.527Z,-2.63
2018-02-24T01:46:12.212Z,-2.58
2018-02-24T01:47:12.448Z,-2.68
2018-02-24T01:48:12.420Z,-2.6
2018-02-24T01:49:12.395Z,-2.61
2018-02-24T01:50:12.422Z,-2.56
2018-02-24T01:51:12.075Z,-2.68
2018-02-24T01:52:12.315Z,-2.63
2018-02-24T01:53:12.024Z,-2.66
2018-02-24T01:54:12.531Z,-2.74
2018-02-24T01:55:12.518Z,-2.58
2018-02-24T01:56:12.294Z,-2.68
2018-02-24T01:57:12.455Z,-2.64
2018-02-24T01:58:12.461Z,-2.61
2018-02-24T01:59:12.129Z,-2.63
2018-02-24T02:00:12.159Z,-2.61
2018-02-24T02:01:12.364Z,-2.57
2018-02-24T02:02:12.312Z,-2.64
2018-02-24T02:03:12.020Z,-2.71
2018-02-24T02:04:12.030Z,-2.68
2018-02-24T02:05:11.997Z,-2.68
2018-02-24T02:06:12.217Z,-2.72
2018-02-24T02:07:11.928Z,-2.69
2018-02-24T02:08:11.887Z,-2.69
2018-02-24T02:09:11.596Z,-2.63
2018-02-24T02:10:11.938Z,-2.69
2018-02-24T02:11:11.805Z,-2.66
2018-02-24T02:12:11.514Z,-2.63
2018-02-24T02:13:11.491Z,-2.66
2018-02-24T02:14:11.988Z,-2.61
2018-02-24T02:15:11.433Z,-2.63
2018-02-24T02:16:11.679Z,-2.68
2018-02-24T02:17:11.641Z,-2.61
2018-02-24T02:18:11.619Z,-2.68
2018-02-24T02:19:11.324Z,-2.66
2018-02-24T02:20:11.304Z,-2.69
2018-02-24T02:21:11.803Z,-2.72
2018-02-24T02:22:11.296Z,-2.66
2018-02-24T02:23:11.752Z,-2.6
2018-02-24T02:24:11.195Z,-2.61
2018-02-24T02:25:11.170Z,-2.68
2018-02-24T02:26:11.683Z,-2.63
2018-02-24T02:27:11.383Z,-2.58
2018-02-24T02:28:11.103Z,-2.69
2018-02-24T02:29:11.089Z,-2.63
2018-02-24T02:30:11.325Z,-2.64
2018-02-24T02:31:11.266Z,-2.64
2018-02-24T02:32:11.507Z,-2.6
2018-02-24T02:33:11.216Z,-2.68
2018-02-24T02:34:10.924Z,-2.61
2018-02-24T02:35:11.445Z,-2.64
2018-02-24T02:36:10.878Z,-2.72
2018-02-24T02:37:11.388Z,-2.66
2018-02-24T02:38:11.351Z,-2.69
2018-02-24T02:39:11.338Z,-2.66
2018-02-24T02:40:11.024Z,-2.68
2018-02-24T02:41:11.003Z,-2.66
2018-02-24T02:42:10.981Z,-2.6
2018-02-24T02:43:11.215Z,-2.58
2018-02-24T02:44:10.920Z,-2.64
2018-02-24T02:45:10.899Z,-2.61
2018-02-24T02:46:10.868Z,-2.64
2018-02-24T02:47:10.570Z,-2.57
2018-02-24T02:48:10.863Z,-2.63
2018-02-24T02:49:10.785Z,-2.64
2018-02-24T02:50:10.760Z,-2.64
2018-02-24T02:51:10.728Z,-2.64
2018-02-24T02:52:10.707Z,-2.68
2018-02-24T02:53:10.731Z,-2.57
2018-02-24T02:54:10.657Z,-2.57
2018-02-24T02:55:10.362Z,-2.61
2018-02-24T02:56:10.594Z,-2.63
2018-02-24T02:57:10.842Z,-2.68
2018-02-24T02:58:10.544Z,-2.68
2018-02-24T02:59:10.782Z,-2.63
2018-02-24T03:00:10.221Z,-2.64
2018-02-24T03:01:10.729Z,-2.6
2018-02-24T03:02:10.162Z,-2.66
2018-02-24T03:03:10.141Z,-2.68
2018-02-24T03:04:10.379Z,-2.68
2018-02-24T03:05:10.628Z,-2.68
2018-02-24T03:06:10.605Z,-2.69
2018-02-24T03:07:10.027Z,-2.61
2018-02-24T03:08:10.005Z,-2.66
2018-02-24T03:09:09.978Z,-2.68
2018-02-24T03:10:10.216Z,-2.64
2018-02-24T03:11:10.191Z,-2.6
2018-02-24T03:12:10.163Z,-2.63
2018-02-24T03:13:10.140Z,-2.6
2018-02-24T03:14:10.104Z,-2.68
2018-02-24T03:15:10.081Z,-2.56
2018-02-24T03:16:10.316Z,-2.64
2018-02-24T03:17:10.028Z,-2.68
2018-02-24T03:18:10.406Z,-2.71
2018-02-24T03:19:09.968Z,-2.6
2018-02-24T03:20:09.677Z,-2.64
2018-02-24T03:21:10.187Z,-2.68
2018-02-24T03:22:09.897Z,-2.66
2018-02-24T03:23:10.131Z,-2.6
2018-02-24T03:24:09.849Z,-2.57
2018-02-24T03:25:10.071Z,-2.68
2018-02-24T03:26:09.781Z,-2.68
2018-02-24T03:27:09.759Z,-2.66
2018-02-24T03:28:09.990Z,-2.68
2018-02-24T03:29:09.979Z,-2.57
2018-02-24T03:30:09.681Z,-2.69
2018-02-24T03:31:09.923Z,-2.63
2018-02-24T03:32:09.903Z,-2.66
2018-02-24T03:33:09.854Z,-2.58
2018-02-24T03:34:09.577Z,-2.63
2018-02-24T03:35:09.275Z,-2.6
2018-02-24T03:36:09.514Z,-2.63
2018-02-24T03:37:09.483Z,-2.58
2018-02-24T03:38:09.479Z,-2.64
2018-02-24T03:39:09.167Z,-2.64
2018-02-24T03:40:09.683Z,-2.6
2018-02-24T03:41:09.381Z,-2.68
2018-02-24T03:42:09.353Z,-2.63
2018-02-24T03:43:09.331Z,-2.63
2018-02-24T03:44:09.029Z,-2.58
2018-02-24T03:45:09.277Z,-2.61
2018-02-24T03:46:08.974Z,-2.57
2018-02-24T03:47:09.248Z,-2.63
2018-02-24T03:48:08.926Z,-2.64
2018-02-24T03:49:08.900Z,-2.68
2018-02-24T03:50:09.133Z,-2.68
2018-02-24T03:51:09.108Z,-2.63
2018-02-24T03:52:09.084Z,-2.58
2018-02-24T03:53:08.790Z,-2.58
2018-02-24T03:54:09.027Z,-2.6
2018-02-24T03:55:09.260Z,-2.61
2018-02-24T03:56:09.292Z,-2.64
2018-02-24T03:57:08.942Z,-2.68
2018-02-24T03:58:08.915Z,-2.64
2018-02-24T03:59:09.162Z,-2.6
2018-02-24T04:00:09.132Z,-2.56
2018-02-24T04:01:08.854Z,-2.64
2018-02-24T04:02:08.545Z,-2.56
2018-02-24T04:03:09.048Z,-2.64
2018-02-24T04:04:08.757Z,-2.63
2018-02-24T04:05:08.996Z,-2.63
2018-02-24T04:06:08.474Z,-2.71
2018-02-24T04:07:08.945Z,-2.63
2018-02-24T04:08:08.650Z,-2.66
2018-02-24T04:09:08.626Z,-2.72
2018-02-24T04:10:08.597Z,-2.66
2018-02-24T04:11:08.567Z,-2.63
2018-02-24T04:12:08.537Z,-2.63
2018-02-24T04:13:08.246Z,-2.66
2018-02-24T04:14:08.754Z,-2.71
2018-02-24T04:15:08.729Z,-2.71
2018-02-24T04:16:08.167Z,-2.68
2018-02-24T04:17:08.406Z,-2.74
2018-02-24T04:18:08.113Z,-2.78
2018-02-24T04:19:08.350Z,-2.75
2018-02-24T04:20:08.385Z,-2.76
2018-02-24T04:21:08.300Z,-2.75
2018-02-24T04:22:08.535Z,-2.75
2018-02-24T04:23:08.242Z,-2.78
2018-02-24T04:24:08.475Z,-2.82
2018-02-24T04:25:07.923Z,-2.79
2018-02-24T04:26:08.167Z,-2.86
2018-02-24T04:27:07.873Z,-2.85
2018-02-24T04:28:07.842Z,-2.75
2018-02-24T04:29:08.083Z,-2.79
2018-02-24T04:30:07.795Z,-2.78
2018-02-24T04:31:08.036Z,-2.76
2018-02-24T04:32:08.262Z,-2.79
2018-02-24T04:33:08.238Z,-2.75
2018-02-24T04:34:08.272Z,-2.79
2018-02-24T04:35:07.651Z,-2.81
2018-02-24T04:36:07.895Z,-2.85
2018-02-24T04:37:08.147Z,-2.87
2018-02-24T04:38:07.838Z,-2.81
2018-02-24T04:39:08.072Z,-2.79
2018-02-24T04:40:08.053Z,-2.87
2018-02-24T04:41:08.017Z,-2.85
2018-02-24T04:42:07.997Z,-2.9
2018-02-24T04:43:07.778Z,-2.89
2018-02-24T04:44:07.943Z,-2.85
2018-02-24T04:45:07.651Z,-2.96
2018-02-24T04:46:07.624Z,-2.94
2018-02-24T04:47:07.651Z,-2.94
2018-02-24T04:48:07.564Z,-3.02
2018-02-24T04:49:07.816Z,-2.97
2018-02-24T04:50:07.512Z,-2.99
2018-02-24T04:51:07.762Z,-3
2018-02-24T04:52:07.457Z,-2.99
2018-02-24T04:53:07.692Z,-2.92
2018-02-24T04:54:07.402Z,-2.96
2018-02-24T04:55:07.114Z,-3
2018-02-24T04:56:07.614Z,-2.9
2018-02-24T04:57:07.324Z,-2.93
2018-02-24T04:58:07.310Z,-3.07
2018-02-24T04:59:07.545Z,-3
2018-02-24T05:00:07.259Z,-3.05
2018-02-24T05:01:07.489Z,-3.05
2018-02-24T05:02:07.190Z,-3.04
2018-02-24T05:03:07.158Z,-3.02
2018-02-24T05:04:07.133Z,-3.02
2018-02-24T05:05:07.367Z,-3.08
2018-02-24T05:06:07.078Z,-3.02
2018-02-24T05:07:07.323Z,-3.04
2018-02-24T05:08:07.021Z,-3.1
2018-02-24T05:09:06.996Z,-3.05
2018-02-24T05:10:07.234Z,-3.08
2018-02-24T05:11:06.939Z,-3.1
2018-02-24T05:12:07.193Z,-3.11
2018-02-24T05:13:06.623Z,-3.13
2018-02-24T05:14:06.598Z,-3.17
2018-02-24T05:15:06.835Z,-3.14
2018-02-24T05:16:06.812Z,-3.17
2018-02-24T05:17:07.052Z,-3.13
2018-02-24T05:18:07.020Z,-3.14
2018-02-24T05:19:06.988Z,-3.14
2018-02-24T05:20:06.964Z,-3.14
2018-02-24T05:21:06.671Z,-3.11
2018-02-24T05:22:06.916Z,-3.1
2018-02-24T05:23:06.878Z,-3.15
2018-02-24T05:24:06.320Z,-3.15
2018-02-24T05:25:06.566Z,-3.15
2018-02-24T05:26:06.852Z,-3.14
2018-02-24T05:27:06.785Z,-3.13
2018-02-24T05:28:06.481Z,-3.13
2018-02-24T05:29:06.715Z,-3.15
2018-02-24T05:30:06.430Z,-3.18
2018-02-24T05:31:06.399Z,-3.22
2018-02-24T05:32:06.104Z,-3.2
2018-02-24T05:33:06.077Z,-3.2
2018-02-24T05:34:06.576Z,-3.33
2018-02-24T05:35:06.562Z,-3.33
2018-02-24T05:36:06.535Z,-3.29
2018-02-24T05:37:06.502Z,-3.38
2018-02-24T05:38:06.207Z,-3.31
2018-02-24T05:39:06.445Z,-3.25
2018-02-24T05:40:06.423Z,-3.38
2018-02-24T05:41:05.870Z,-3.31
2018-02-24T05:42:06.163Z,-3.31
2018-02-24T05:43:06.068Z,-3.33
2018-02-24T05:44:06.323Z,-3.31
2018-02-24T05:45:06.019Z,-3.28
2018-02-24T05:46:05.996Z,-3.23
2018-02-24T05:47:05.964Z,-3.29
2018-02-24T05:48:06.206Z,-3.25
2018-02-24T05:49:05.905Z,-3.26
2018-02-24T05:50:05.612Z,-3.26
2018-02-24T05:51:05.585Z,-3.25
2018-02-24T05:52:05.820Z,-3.38
2018-02-24T05:53:05.798Z,-3.25
2018-02-24T05:54:05.507Z,-3.23
2018-02-24T05:55:05.740Z,-3.33
2018-02-24T05:56:05.721Z,-3.28
2018-02-24T05:57:05.696Z,-3.25
2018-02-24T05:58:05.662Z,-3.29
2018-02-24T05:59:05.898Z,-3.32
2018-02-24T06:00:05.605Z,-3.33
2018-02-24T06:01:05.312Z,-3.28
2018-02-24T06:02:05.552Z,-3.33
2018-02-24T06:03:05.526Z,-3.26
2018-02-24T06:04:05.494Z,-3.33
2018-02-24T06:05:05.748Z,-3.33
2018-02-24T06:06:05.183Z,-3.38
2018-02-24T06:07:05.684Z,-3.31
2018-02-24T06:08:05.131Z,-3.31
2018-02-24T06:09:05.639Z,-3.31
2018-02-24T06:10:05.331Z,-3.31
2018-02-24T06:11:05.573Z,-3.2
2018-02-24T06:12:05.552Z,-3.31
2018-02-24T06:13:05.251Z,-3.18
2018-02-24T06:14:04.962Z,-3.23
2018-02-24T06:15:04.931Z,-3.18
2018-02-24T06:16:05.174Z,-3.25
2018-02-24T06:17:05.138Z,-3.22
2018-02-24T06:18:05.386Z,-3.2
2018-02-24T06:19:04.825Z,-3.29
2018-02-24T06:20:04.796Z,-3.2
2018-02-24T06:21:05.304Z,-3.25
2018-02-24T06:22:05.001Z,-3.22
2018-02-24T06:23:04.975Z,-3.23
2018-02-24T06:24:04.948Z,-3.2
2018-02-24T06:25:05.191Z,-3.17
2018-02-24T06:26:05.159Z,-3.18
2018-02-24T06:27:05.137Z,-3.17
2018-02-24T06:28:04.849Z,-3.23
2018-02-24T06:29:05.080Z,-3.18
2018-02-24T06:30:04.525Z,-3.23
2018-02-24T06:31:05.019Z,-3.2
2018-02-24T06:32:04.730Z,-3.2
2018-02-24T06:33:04.705Z,-3.22
2018-02-24T06:34:04.675Z,-3.25
2018-02-24T06:35:04.919Z,-3.2
2018-02-24T06:36:04.626Z,-3.28
2018-02-24T06:37:04.598Z,-3.22
2018-02-24T06:38:04.302Z,-3.33
2018-02-24T06:39:04.819Z,-3.26
2018-02-24T06:40:04.785Z,-3.22
2018-02-24T06:41:04.749Z,-3.18
2018-02-24T06:42:04.460Z,-3.2
2018-02-24T06:43:04.697Z,-3.2
2018-02-24T06:44:04.668Z,-3.2
2018-02-24T06:45:04.646Z,-3.28
2018-02-24T06:46:04.087Z,-3.2
2018-02-24T06:47:04.586Z,-3.2
2018-02-24T06:48:04.560Z,-3.18
2018-02-24T06:49:04.267Z,-3.17
2018-02-24T06:50:03.978Z,-3.14
2018-02-24T06:51:04.482Z,-3.11
2018-02-24T06:52:04.452Z,-3.14
2018-02-24T06:53:03.899Z,-3.14
2018-02-24T06:54:04.141Z,-3.14
2018-02-24T06:55:04.374Z,-3.14
2018-02-24T06:56:04.075Z,-3.07
2018-02-24T06:57:04.061Z,-3.13
2018-02-24T06:58:03.760Z,-3.13
2018-02-24T06:59:04.288Z,-3.1
2018-02-24T07:00:03.969Z,-3.07
2018-02-24T07:01:04.210Z,-3.13
2018-02-24T07:02:04.195Z,-3.08
2018-02-24T07:03:04.149Z,-3.08
2018-02-24T07:04:03.590Z,-2.97
2018-02-24T07:05:04.101Z,-3.05
2018-02-24T07:06:03.805Z,-3
2018-02-24T07:07:03.511Z,-2.99
2018-02-24T07:08:03.753Z,-2.93
2018-02-24T07:09:03.994Z,-2.92
2018-02-24T07:10:03.430Z,-2.92
2018-02-24T07:11:03.985Z,-2.93
2018-02-24T07:12:03.635Z,-2.92
2018-02-24T07:13:03.629Z,-2.85
2018-02-24T07:14:03.588Z,-2.92
2018-02-24T07:15:03.295Z,-2.78
2018-02-24T07:16:03.529Z,-2.79
2018-02-24T07:17:03.510Z,-2.86
2018-02-24T07:18:03.741Z,-2.78
2018-02-24T07:19:03.655Z,-2.76
2018-02-24T07:20:03.159Z,-2.74
2018-02-24T07:21:03.391Z,-2.72
2018-02-24T07:22:03.104Z,-2.71
2018-02-24T07:23:03.076Z,-2.74
2018-02-24T07:24:03.329Z,-2.63
2018-02-24T07:25:03.290Z,-2.72
2018-02-24T07:26:03.572Z,-2.61
2018-02-24T07:27:03.232Z,-2.71
2018-02-24T07:28:02.941Z,-2.66
2018-02-24T07:29:03.182Z,-2.69
2018-02-24T07:30:03.154Z,-2.57
2018-02-24T07:31:02.865Z,-2.58
2018-02-24T07:32:02.840Z,-2.51
2018-02-24T07:33:03.076Z,-2.48
2018-02-24T07:34:03.044Z,-2.53
2018-02-24T07:35:03.286Z,-2.42
2018-02-24T07:36:02.995Z,-2.42
2018-02-24T07:37:03.226Z,-2.42
2018-02-24T07:38:02.669Z,-2.45
2018-02-24T07:39:02.908Z,-2.43
2018-02-24T07:40:03.156Z,-2.35
2018-02-24T07:41:02.884Z,-2.35
2018-02-24T07:42:02.565Z,-2.24
2018-02-24T07:43:02.801Z,-2.32
2018-02-24T07:44:02.779Z,-2.28
2018-02-24T07:45:02.747Z,-2.28
2018-02-24T07:46:02.721Z,-2.21
2018-02-24T07:47:02.963Z,-2.18
2018-02-24T07:48:02.672Z,-2.16
2018-02-24T07:49:02.919Z,-2.17
2018-02-24T07:50:02.618Z,-2.14
2018-02-24T07:51:02.860Z,-2.13
2018-02-24T07:52:02.826Z,-2.05
2018-02-24T07:53:02.539Z,-2.1
2018-02-24T07:54:02.510Z,-2.06
2018-02-24T07:55:02.485Z,-1.96
2018-02-24T07:56:02.725Z,-1.96
2018-02-24T07:57:02.445Z,-1.93
2018-02-24T07:58:02.701Z,-1.95
2018-02-24T07:59:02.395Z,-1.85
2018-02-24T08:00:02.374Z,-1.84
2018-02-24T08:01:02.348Z,-1.8
2018-02-24T08:02:02.069Z,-1.85
2018-02-24T08:03:02.287Z,-1.75
2018-02-24T08:04:02.249Z,-1.72
2018-02-24T08:05:01.960Z,-1.72
2018-02-24T08:06:02.468Z,-1.69
2018-02-24T08:07:01.902Z,-1.72
2018-02-24T08:08:02.416Z,-1.69
2018-02-24T08:09:01.901Z,-1.64
2018-02-24T08:10:02.089Z,-1.6
2018-02-24T08:11:02.077Z,-1.63
2018-02-24T08:12:02.036Z,-1.49
2018-02-24T08:13:02.010Z,-1.48
2018-02-24T08:14:02.249Z,-1.43
2018-02-24T08:15:01.969Z,-1.46
2018-02-24T08:16:02.197Z,-1.43
2018-02-24T08:17:01.918Z,-1.39
2018-02-24T08:18:01.881Z,-1.42
2018-02-24T08:19:01.585Z,-1.3
2018-02-24T08:20:02.095Z,-1.36
2018-02-24T08:21:01.535Z,-1.42
2018-02-24T08:22:01.514Z,-1.35
2018-02-24T08:23:02.013Z,-1.41
2018-02-24T08:24:01.723Z,-1.33
2018-02-24T08:25:01.958Z,-1.3
2018-02-24T08:26:01.672Z,-1.21
2018-02-24T08:27:01.648Z,-1.21
2018-02-24T08:28:01.887Z,-1.07
2018-02-24T08:29:01.600Z,-1.07
2018-02-24T08:30:01.302Z,-0.91
2018-02-24T08:31:01.821Z,-0.6
2018-02-24T08:32:01.252Z,-0.41
2018-02-24T08:33:01.492Z,0.21
2018-02-24T08:34:01.734Z,1.03
2018-02-24T08:35:01.709Z,1.73
2018-02-24T08:36:01.159Z,2.27
2018-02-24T08:37:01.394Z,2.08
2018-02-24T08:38:01.108Z,1.73
2018-02-24T08:39:01.378Z,1.36
2018-02-24T08:40:01.327Z,1.1
2018-02-24T08:41:01.303Z,0.9
2018-02-24T08:42:01.274Z,1.15
2018-02-24T08:43:00.989Z,1.78
2018-02-24T08:44:01.229Z,2.33
2018-02-24T08:45:01.210Z,2.26
2018-02-24T08:46:01.460Z,1.87
2018-02-24T08:47:01.165Z,1.97
2018-02-24T08:48:01.141Z,2.46
2018-02-24T08:49:00.856Z,3.15
2018-02-24T08:50:01.362Z,3.79
2018-02-24T08:51:01.077Z,4.4
2018-02-24T08:52:01.055Z,4.89
2018-02-24T08:53:01.301Z,5.4
2018-02-24T08:54:01.346Z,5.67
2018-02-24T08:55:01.263Z,5.89
2018-02-24T08:56:00.979Z,5.83
2018-02-24T08:57:00.954Z,6.06
2018-02-24T08:58:00.704Z,6.04
2018-02-24T08:59:01.184Z,6.11
2018-02-24T09:00:00.629Z,6.3
2018-02-24T09:01:01.154Z,6.14
2018-02-24T09:02:01.149Z,6.18
2018-02-24T09:03:00.848Z,5.88
2018-02-24T09:04:00.555Z,5.68
2018-02-24T09:05:01.071Z,5.3
2018-02-24T09:06:01.054Z,5.31
2018-02-24T09:07:01.046Z,5.6
2018-02-24T09:08:01.017Z,5.77
2018-02-24T09:09:00.462Z,5.83
2018-02-24T09:10:00.710Z,6.14
2018-02-24T09:11:00.692Z,6.25
2018-02-24T09:12:00.410Z,6.07
2018-02-24T09:13:00.929Z,5.91
2018-02-24T09:14:00.645Z,5.46
2018-02-24T09:15:00.668Z,5.75
2018-02-24T09:16:00.628Z,6.09
2018-02-24T09:17:00.350Z,6.35
2018-02-24T09:18:00.571Z,6.32
2018-02-24T09:19:00.779Z,6.11
2018-02-24T09:20:00.536Z,6.35
2018-02-24T09:21:00.527Z,6.16
2018-02-24T09:22:00.505Z,5.95
2018-02-24T09:23:00.223Z,5.64
2018-02-24T09:24:00.731Z,5.78
2018-02-24T09:25:00.715Z,5.74
2018-02-24T09:26:00.443Z,5.74
2018-02-24T09:27:00.424Z,5.63
2018-02-24T09:28:00.666Z,5.55
2018-02-24T09:29:00.116Z,5.64
2018-02-24T09:30:00.621Z,5.68
2018-02-24T09:31:00.350Z,5.48
2018-02-24T09:32:00.331Z,4.96
2018-02-24T09:33:00.575Z,4.62
2018-02-24T09:34:00.557Z,4.39
2018-02-24T09:35:00.554Z,4.32
2018-02-24T09:36:00.528Z,4.28
2018-02-24T09:37:00.502Z,4.22
2018-02-24T09:38:00.231Z,4.08
2018-02-24T09:39:00.200Z,4.07
2018-02-24T09:40:00.456Z,4.08
2018-02-24T09:41:00.169Z,4.24
2018-02-24T09:42:00.424Z,4.36
2018-02-24T09:43:00.389Z,4.37
2018-02-24T09:44:00.365Z,4.14
2018-02-24T09:45:00.084Z,3.75
2018-02-24T09:46:00.329Z,3.58
2018-02-24T09:47:00.042Z,3.52
2018-02-24T09:48:00.292Z,3.58
2018-02-24T09:49:00.012Z,3.8
2018-02-24T09:49:59.997Z,4.04
2018-02-24T09:51:00.240Z,4.01
2018-02-24T09:51:59.953Z,3.97
2018-02-24T09:52:59.938Z,4.19
2018-02-24T09:54:00.177Z,4.5
2018-02-24T09:54:59.897Z,4.79
2018-02-24T09:55:59.936Z,4.86
2018-02-24T09:56:59.861Z,4.89
2018-02-24T09:57:59.848Z,4.51
2018-02-24T09:59:00.100Z,4.62
2018-02-24T09:59:59.806Z,4.83
2018-02-24T10:00:59.797Z,4.95
2018-02-24T10:01:59.798Z,5.05
2018-02-24T10:02:59.502Z,4.91
2018-02-24T10:03:59.739Z,4.65
2018-02-24T10:04:59.983Z,4.32
2018-02-24T10:05:59.460Z,4.18
2018-02-24T10:06:59.954Z,3.96
2018-02-24T10:07:59.669Z,3.86
2018-02-24T10:08:59.650Z,3.9
2018-02-24T10:09:59.630Z,3.97
2018-02-24T10:10:59.664Z,3.89
2018-02-24T10:11:59.590Z,3.83
2018-02-24T10:12:59.574Z,3.7
2018-02-24T10:13:59.816Z,3.67
2018-02-24T10:14:59.822Z,3.85
2018-02-24T10:15:59.523Z,4.32
2018-02-24T10:16:59.496Z,4.69
2018-02-24T10:17:59.745Z,5.01
2018-02-24T10:18:59.567Z,5.22
2018-02-24T10:19:59.441Z,5.48
2018-02-24T10:20:59.161Z,5.71
2018-02-24T10:21:59.439Z,5.55
2018-02-24T10:22:59.414Z,5.48
2018-02-24T10:23:59.367Z,5.5
2018-02-24T10:24:59.861Z,5.66
2018-02-24T10:25:59.601Z,5.67
2018-02-24T10:26:59.315Z,5.63
2018-02-24T10:27:59.570Z,5.75
2018-02-24T10:28:59.282Z,5.77
2018-02-24T10:29:59.310Z,5.7
2018-02-24T10:30:58.989Z,5.59
2018-02-24T10:31:58.973Z,5.59
2018-02-24T10:32:59.481Z,5.63
2018-02-24T10:33:59.536Z,5.56
2018-02-24T10:34:59.182Z,5.07
2018-02-24T10:35:58.901Z,4.86
2018-02-24T10:36:59.194Z,4.91
2018-02-24T10:37:59.395Z,4.91
2018-02-24T10:38:58.844Z,5.04
2018-02-24T10:39:59.092Z,5.16
2018-02-24T10:40:59.344Z,5.13
2018-02-24T10:41:59.325Z,5.13
2018-02-24T10:42:59.040Z,5.14
2018-02-24T10:43:59.032Z,5.34
2018-02-24T10:44:59.006Z,5.34
2018-02-24T10:45:58.721Z,5.49
2018-02-24T10:46:59.019Z,5.6
2018-02-24T10:47:59.211Z,5.57
2018-02-24T10:48:58.667Z,5.78
2018-02-24T10:49:59.183Z,5.75
2018-02-24T10:50:58.895Z,6.03
2018-02-24T10:51:58.615Z,6.11
2018-02-24T10:52:58.873Z,6.32
2018-02-24T10:53:58.851Z,6.48
2018-02-24T10:54:59.096Z,6.11
2018-02-24T10:55:58.551Z,6.06
2018-02-24T10:56:58.805Z,5.74
2018-02-24T10:57:59.045Z,5.63
2018-02-24T10:58:58.768Z,5.63
2018-02-24T10:59:58.480Z,5.71
2018-02-24T11:00:58.472Z,5.7
2018-02-24T11:01:58.708Z,5.86
2018-02-24T11:02:58.474Z,5.93
2018-02-24T11:03:58.678Z,6.1
2018-02-24T11:04:58.664Z,6.26
2018-02-24T11:05:58.430Z,6.48
2018-02-24T11:06:58.627Z,6.51
2018-02-24T11:07:58.885Z,6.51
2018-02-24T11:08:58.858Z,6.53
2018-02-24T11:09:58.580Z,6.61
2018-02-24T11:10:58.565Z,6.8
2018-02-24T11:11:58.818Z,6.61
2018-02-24T11:12:58.542Z,6.58
2018-02-24T11:13:58.789Z,6.4
2018-02-24T11:14:58.507Z,6.26
2018-02-24T11:15:58.495Z,6.35
2018-02-24T11:16:58.195Z,6.28
2018-02-24T11:17:58.716Z,6.13
2018-02-24T11:18:58.903Z,6.18
2018-02-24T11:19:58.680Z,6.25
2018-02-24T11:20:58.677Z,6.26
2018-02-24T11:21:58.653Z,6.32
2018-02-24T11:22:58.407Z,6.51
2018-02-24T11:23:58.401Z,6.76
2018-02-24T11:24:58.340Z,6.81
2018-02-24T11:25:58.323Z,6.83
2018-02-24T11:26:58.046Z,6.83
2018-02-24T11:27:58.557Z,6.91
2018-02-24T11:28:58.283Z,6.99
2018-02-24T11:29:58.578Z,6.99
2018-02-24T11:30:58.250Z,6.97
2018-02-24T11:31:58.238Z,7.08
2018-02-24T11:32:58.010Z,7.13
2018-02-24T11:33:58.495Z,7.16
2018-02-24T11:34:58.198Z,7.08
2018-02-24T11:35:58.449Z,6.86
2018-02-24T11:36:58.437Z,7.04
2018-02-24T11:37:57.892Z,6.76
2018-02-24T11:38:58.407Z,6.89
2018-02-24T11:39:58.386Z,6.84
2018-02-24T11:40:58.115Z,6.62
2018-02-24T11:41:58.369Z,6.46
2018-02-24T11:42:58.356Z,6.53
2018-02-24T11:43:58.456Z,6.41
2018-02-24T11:44:57.795Z,6.56
2018-02-24T11:45:58.307Z,6.54
2018-02-24T11:46:58.295Z,6.61
2018-02-24T11:47:58.019Z,6.9
2018-02-24T11:48:58.300Z,6.89
2018-02-24T11:49:58.000Z,7.13
2018-02-24T11:50:58.032Z,7.16
2018-02-24T11:51:58.229Z,7.23
2018-02-24T11:52:58.228Z,7.2
2018-02-24T11:53:57.929Z,7.35
2018-02-24T11:54:58.190Z,7.47
2018-02-24T11:55:57.904Z,7.66
2018-02-24T11:56:57.894Z,7.58
2018-02-24T11:57:57.880Z,7.34
2018-02-24T11:58:57.889Z,7.4
2018-02-24T11:59:58.119Z,7.59
2018-02-24T12:00:57.841Z,7.38
2018-02-24T12:01:57.829Z,7.62
2018-02-24T12:02:57.821Z,7.82
2018-02-24T12:03:58.120Z,7.6
2018-02-24T12:04:57.790Z,7.69
2018-02-24T12:05:58.049Z,7.55
2018-02-24T12:06:57.768Z,7.62
2018-02-24T12:07:57.753Z,7.63
2018-02-24T12:08:57.747Z,7.71
2018-02-24T12:09:57.462Z,8.03
2018-02-24T12:10:57.980Z,7.89
2018-02-24T12:11:57.968Z,8.17
2018-02-24T12:12:57.697Z,8.32
2018-02-24T12:13:57.676Z,8.58
2018-02-24T12:14:57.928Z,8.47
2018-02-24T12:15:57.917Z,8.58
2018-02-24T12:16:57.639Z,8.72
2018-02-24T12:17:57.375Z,8.87
2018-02-24T12:18:57.934Z,8.9
2018-02-24T12:19:57.873Z,9.06
2018-02-24T12:20:57.598Z,9.38
2018-02-24T12:21:57.849Z,9.48
2018-02-24T12:22:57.304Z,9.6
2018-02-24T12:23:57.825Z,9.94
2018-02-24T12:24:57.550Z,9.99
2018-02-24T12:25:57.544Z,9.83
2018-02-24T12:26:57.809Z,9.76
2018-02-24T12:27:57.786Z,9.81
2018-02-24T12:28:57.514Z,10.04
2018-02-24T12:29:57.777Z,10.21
2018-02-24T12:30:57.763Z,10.26
2018-02-24T12:31:57.752Z,10.47
2018-02-24T12:32:57.758Z,10.47
2018-02-24T12:33:57.208Z,10.51
2018-02-24T12:34:57.193Z,10.88
2018-02-24T12:35:57.187Z,11.36
2018-02-24T12:36:57.711Z,10.8
2018-02-24T12:37:57.441Z,10.51
2018-02-24T12:38:57.426Z,10.59
2018-02-24T12:39:57.686Z,10.24
2018-02-24T12:40:57.675Z,9.89
2018-02-24T12:41:57.409Z,9.42
2018-02-24T12:42:57.395Z,9.67
2018-02-24T12:43:57.386Z,9.93
2018-02-24T12:44:57.113Z,9.99
2018-02-24T12:45:57.640Z,9.58
2018-02-24T12:46:57.630Z,8.9
2018-02-24T12:47:57.630Z,8.71
2018-02-24T12:48:57.079Z,8.88
2018-02-24T12:49:57.081Z,8.57
2018-02-24T12:50:57.375Z,8.5
2018-02-24T12:51:57.055Z,8.32
2018-02-24T12:52:57.316Z,8.2
2018-02-24T12:53:57.029Z,7.97
2018-02-24T12:54:57.601Z,7.74
2018-02-24T12:55:57.274Z,7.53
2018-02-24T12:56:57.265Z,7.17
2018-02-24T12:57:56.989Z,6.98
2018-02-24T12:58:57.506Z,6.81
2018-02-24T12:59:57.233Z,6.76
2018-02-24T13:00:57.481Z,6.69
2018-02-24T13:01:57.467Z,6.56
2018-02-24T13:02:56.924Z,6.47